Time;durP1;ratioP1;P1;durP2;ratioP2;P2;SDS_P1;SDS_P2;PMS_P1;PMS_P2;Temp;Humidity;BMP_temperature;BMP_pressure;BME280_temperature;BME280_humidity;BME280_pressure;Samples;Min_cycle;Max_cycle;Signal;HPM_P1;HPM_P2
2020/12/29 00:02:22;;;;;;;3.60;2.08;;;4.00;99.90;;;;;;5036928;28;20068;-56
2020/12/29 00:04:48;;;;;;;4.47;2.28;;;3.80;99.90;;;;;;5035514;28;20041;-56
2020/12/29 00:07:14;;;;;;;3.33;2.53;;;3.90;99.90;;;;;;5035922;28;20088;-60
2020/12/29 00:09:39;;;;;;;2.17;1.75;;;3.90;99.90;;;;;;5035359;28;20497;-57
2020/12/29 00:12:05;;;;;;;3.38;2.53;;;4.00;99.90;;;;;;5033740;28;20557;-57
2020/12/29 00:14:31;;;;;;;2.78;2.13;;;3.70;99.90;;;;;;5034406;28;20041;-57
2020/12/29 00:16:56;;;;;;;2.45;1.80;;;3.70;99.90;;;;;;5035447;28;20056;-57
2020/12/29 00:19:24;;;;;;;4.45;2.35;;;3.90;99.90;;;;;;5036520;28;20360;-62
2020/12/29 00:21:51;;;;;;;2.63;1.70;;;3.90;99.90;;;;;;5034683;28;20044;-58
2020/12/29 00:24:17;;;;;;;2.58;1.95;;;4.00;99.90;;;;;;5035414;28;20034;-56
2020/12/29 00:26:43;;;;;;;2.47;1.85;;;4.00;99.90;;;;;;5034521;28;20057;-56
2020/12/29 00:29:09;;;;;;;3.30;1.90;;;3.80;99.90;;;;;;5032976;28;20025;-58
2020/12/29 00:31:35;;;;;;;7.20;2.05;;;3.60;99.90;;;;;;5035492;28;20037;-62
2020/12/29 00:34:02;;;;;;;2.70;2.30;;;3.80;99.90;;;;;;5032633;28;20033;-60
2020/12/29 00:36:28;;;;;;;3.83;1.80;;;3.50;99.90;;;;;;5032429;28;20033;-57
2020/12/29 00:38:54;;;;;;;4.85;2.05;;;3.60;99.90;;;;;;5031973;28;20112;-57
2020/12/29 00:41:21;;;;;;;3.38;2.00;;;3.50;99.90;;;;;;5033691;28;20212;-57
2020/12/29 00:43:47;;;;;;;4.32;2.50;;;3.40;99.90;;;;;;5033458;28;20431;-56
2020/12/29 00:46:20;;;;;;;4.85;2.80;;;3.40;99.90;;;;;;5032645;28;20058;-57
2020/12/29 00:48:46;;;;;;;5.13;1.92;;;3.30;99.90;;;;;;5033996;28;20021;-56
2020/12/29 00:51:17;;;;;;;4.38;2.45;;;3.50;99.90;;;;;;5031810;28;20037;-59
2020/12/29 00:53:43;;;;;;;4.75;2.70;;;3.50;99.90;;;;;;5032543;28;20029;-56
2020/12/29 00:56:09;;;;;;;3.72;2.20;;;3.40;99.90;;;;;;5032952;28;20030;-58
2020/12/29 00:58:36;;;;;;;3.03;2.30;;;3.60;99.90;;;;;;5032429;28;20030;-58
2020/12/29 01:01:02;;;;;;;4.72;2.55;;;3.30;99.90;;;;;;5032792;28;20431;-57
2020/12/29 01:03:28;;;;;;;8.02;2.63;;;3.30;99.90;;;;;;5033504;28;20034;-56
2020/12/29 01:05:54;;;;;;;3.38;1.98;;;3.40;99.90;;;;;;5033920;28;20080;-61
2020/12/29 01:08:21;;;;;;;3.47;2.28;;;3.60;99.90;;;;;;5035798;28;20084;-59
2020/12/29 01:10:53;;;;;;;3.70;2.15;;;3.70;99.90;;;;;;5035981;28;20419;-59
2020/12/29 01:13:19;;;;;;;3.00;2.15;;;3.40;99.90;;;;;;5053491;28;20045;-61
2020/12/29 01:15:46;;;;;;;3.60;2.15;;;3.30;99.90;;;;;;5038117;28;20531;-58
2020/12/29 01:18:12;;;;;;;4.32;2.35;;;3.40;99.90;;;;;;5052748;28;20032;-62
2020/12/29 01:20:37;;;;;;;2.92;1.83;;;3.20;99.90;;;;;;5035610;28;20029;-57
2020/12/29 01:23:03;;;;;;;2.75;2.10;;;3.30;99.90;;;;;;5034984;28;20355;-57
2020/12/29 01:25:29;;;;;;;3.83;1.90;;;3.40;99.90;;;;;;5053412;28;20152;-58
2020/12/29 01:27:54;;;;;;;5.07;2.30;;;3.50;99.90;;;;;;5052691;28;20021;-57
2020/12/29 01:30:20;;;;;;;3.72;1.67;;;3.30;99.90;;;;;;5034453;28;20060;-60
2020/12/29 01:32:46;;;;;;;3.63;1.90;;;3.40;99.90;;;;;;5052952;28;20438;-57
2020/12/29 01:35:12;;;;;;;3.20;1.75;;;3.30;99.90;;;;;;5034331;28;20098;-57
2020/12/29 01:37:41;;;;;;;4.00;2.47;;;3.30;99.90;;;;;;5035038;28;20056;-56
2020/12/29 01:40:08;;;;;;;2.83;1.45;;;3.40;99.90;;;;;;5034994;28;20064;-57
2020/12/29 01:42:33;;;;;;;2.78;1.65;;;3.40;99.90;;;;;;5035136;28;20029;-58
2020/12/29 01:44:59;;;;;;;2.75;1.95;;;3.50;99.90;;;;;;5052800;28;20036;-58
2020/12/29 01:47:26;;;;;;;3.72;2.03;;;3.40;99.90;;;;;;5053026;28;20037;-57
2020/12/29 01:49:53;;;;;;;2.28;1.90;;;3.30;99.90;;;;;;5052706;28;20447;-64
2020/12/29 01:52:19;;;;;;;3.53;2.08;;;3.40;99.90;;;;;;5052866;28;20093;-57
2020/12/29 01:54:45;;;;;;;2.47;1.50;;;3.40;99.90;;;;;;5034465;28;20063;-57
2020/12/29 01:57:12;;;;;;;4.30;2.00;;;3.40;99.90;;;;;;5051673;28;20037;-57
2020/12/29 01:59:37;;;;;;;3.22;1.55;;;3.40;99.90;;;;;;5034882;28;20060;-55
2020/12/29 02:02:03;;;;;;;3.13;2.25;;;3.30;99.90;;;;;;5052211;28;20055;-57
2020/12/29 02:04:29;;;;;;;3.95;2.40;;;3.40;99.90;;;;;;5052422;28;20443;-56
2020/12/29 02:06:55;;;;;;;2.65;2.00;;;3.50;99.90;;;;;;5052255;28;20033;-58
2020/12/29 02:09:21;;;;;;;4.63;2.53;;;3.50;99.90;;;;;;5053565;28;20363;-57
2020/12/29 02:11:47;;;;;;;4.13;2.35;;;3.60;99.90;;;;;;5053410;28;20106;-58
2020/12/29 02:14:16;;;;;;;2.90;2.20;;;3.70;99.90;;;;;;5035273;28;20244;-61
2020/12/29 02:16:43;;;;;;;5.43;1.90;;;3.70;99.90;;;;;;5054068;28;20052;-61
2020/12/29 02:19:09;;;;;;;3.58;2.20;;;3.60;99.90;;;;;;5035061;28;20050;-59
2020/12/29 02:21:37;;;;;;;2.05;1.80;;;3.50;99.90;;;;;;5054182;28;20429;-57
2020/12/29 02:24:06;;;;;;;2.53;2.20;;;3.50;99.90;;;;;;5053522;28;20075;-57
2020/12/29 02:26:34;;;;;;;2.25;1.67;;;3.50;99.90;;;;;;5052147;28;20036;-57
2020/12/29 02:29:05;;;;;;;3.70;2.00;;;3.50;99.90;;;;;;5051926;28;20089;-57
2020/12/29 02:31:31;;;;;;;2.70;2.00;;;3.60;99.90;;;;;;5053213;28;20080;-57
2020/12/29 02:33:57;;;;;;;3.53;2.30;;;3.80;99.90;;;;;;5052866;28;20120;-57
2020/12/29 02:36:23;;;;;;;2.60;1.90;;;3.70;99.90;;;;;;5035182;28;20565;-58
2020/12/29 02:38:49;;;;;;;3.92;2.10;;;3.60;99.90;;;;;;5035840;28;20375;-64
2020/12/29 02:41:17;;;;;;;1.77;1.63;;;3.50;99.90;;;;;;5053544;28;20036;-58
2020/12/29 02:43:43;;;;;;;2.55;1.58;;;3.60;99.90;;;;;;5036595;28;20029;-60
2020/12/29 02:46:11;;;;;;;3.85;2.03;;;3.50;99.90;;;;;;5051468;28;20090;-63
2020/12/29 02:48:37;;;;;;;3.08;1.67;;;3.50;99.90;;;;;;5034317;28;20082;-57
2020/12/29 02:51:03;;;;;;;3.72;1.75;;;3.60;99.90;;;;;;5033600;28;20063;-57
2020/12/29 02:53:28;;;;;;;1.48;1.35;;;3.60;99.90;;;;;;5051720;28;20025;-57
2020/12/29 02:55:54;;;;;;;3.15;2.45;;;3.80;99.90;;;;;;5051602;28;20029;-57
2020/12/29 02:58:20;;;;;;;2.10;1.55;;;3.50;99.90;;;;;;5033072;28;20474;-57
2020/12/29 03:00:45;;;;;;;1.75;1.63;;;3.70;99.90;;;;;;5051582;28;20029;-57
2020/12/29 03:03:11;;;;;;;2.40;1.75;;;3.40;99.90;;;;;;5033411;28;20122;-59
2020/12/29 03:05:36;;;;;;;7.28;2.20;;;3.50;99.90;;;;;;5034047;28;20027;-57
2020/12/29 03:08:02;;;;;;;3.38;1.73;;;3.70;99.90;;;;;;5034563;28;20363;-57
2020/12/29 03:10:28;;;;;;;2.00;1.80;;;3.60;99.90;;;;;;5035566;28;20029;-57
2020/12/29 03:12:53;;;;;;;4.35;2.20;;;3.40;99.90;;;;;;5054583;28;20477;-57
2020/12/29 03:15:19;;;;;;;2.30;2.00;;;3.40;99.90;;;;;;5056707;28;20048;-56
2020/12/29 03:17:44;;;;;;;2.35;1.40;;;3.50;99.90;;;;;;5039887;28;20512;-57
2020/12/29 03:20:10;;;;;;;2.13;1.58;;;3.60;99.90;;;;;;5039113;28;20527;-57
2020/12/29 03:22:36;;;;;;;2.38;1.75;;;3.60;99.90;;;;;;5039309;28;20060;-57
2020/12/29 03:25:01;;;;;;;3.67;2.28;;;3.60;99.90;;;;;;5039304;28;20025;-58
2020/12/29 03:27:27;;;;;;;3.45;1.65;;;3.60;99.90;;;;;;5056624;28;20029;-58
2020/12/29 03:29:53;;;;;;;2.40;1.83;;;3.70;99.90;;;;;;5038404;28;20036;-56
2020/12/29 03:32:18;;;;;;;2.45;1.75;;;3.80;99.90;;;;;;5055970;28;20112;-57
2020/12/29 03:34:44;;;;;;;3.05;1.67;;;3.80;99.90;;;;;;5056216;28;20029;-61
2020/12/29 03:37:10;;;;;;;2.85;1.70;;;3.70;99.90;;;;;;5038401;28;20518;-59
2020/12/29 03:39:37;;;;;;;2.47;1.83;;;3.90;99.90;;;;;;5056661;28;20029;-62
2020/12/29 03:42:04;;;;;;;3.08;1.85;;;4.00;99.90;;;;;;5039192;28;20032;-57
2020/12/29 03:44:30;;;;;;;3.25;2.10;;;3.90;99.90;;;;;;5057901;28;20102;-63
2020/12/29 03:46:56;;;;;;;3.20;2.53;;;4.00;99.90;;;;;;5057056;28;20036;-62
2020/12/29 03:49:22;;;;;;;3.20;2.40;;;4.00;99.90;;;;;;5055616;28;20021;-58
2020/12/29 03:51:47;;;;;;;2.22;1.80;;;4.00;99.90;;;;;;5038487;28;20033;-64
2020/12/29 03:54:13;;;;;;;2.55;1.85;;;4.10;99.90;;;;;;5056026;28;20025;-58
2020/12/29 03:56:39;;;;;;;6.30;2.08;;;3.90;99.90;;;;;;5056429;28;20079;-56
2020/12/29 03:59:05;;;;;;;2.50;1.95;;;3.80;99.90;;;;;;5055298;28;20021;-56
2020/12/29 04:01:31;;;;;;;5.50;2.80;;;3.80;99.90;;;;;;5055990;28;20390;-58
2020/12/29 04:03:57;;;;;;;2.75;1.90;;;3.80;99.90;;;;;;5055847;28;20029;-57
2020/12/29 04:06:22;;;;;;;2.45;2.15;;;3.80;99.90;;;;;;5056246;28;20138;-59
2020/12/29 04:08:49;;;;;;;2.55;2.20;;;3.70;99.90;;;;;;5057141;28;20025;-59
2020/12/29 04:11:15;;;;;;;2.50;2.30;;;3.80;99.90;;;;;;5055915;28;20075;-59
2020/12/29 04:13:41;;;;;;;2.60;1.90;;;4.00;99.90;;;;;;5057469;28;20114;-58
2020/12/29 04:16:06;;;;;;;3.28;2.33;;;3.80;99.90;;;;;;5056480;28;20040;-58
2020/12/29 04:18:32;;;;;;;4.15;2.25;;;3.80;99.90;;;;;;5057447;28;20064;-57
2020/12/29 04:20:58;;;;;;;2.25;2.00;;;3.90;99.90;;;;;;5039741;28;20032;-59
2020/12/29 04:23:24;;;;;;;3.60;2.75;;;3.90;99.90;;;;;;5057188;28;20143;-56
2020/12/29 04:25:50;;;;;;;6.30;2.55;;;4.00;99.90;;;;;;5038735;28;20028;-57
2020/12/29 04:28:16;;;;;;;3.55;2.08;;;3.80;99.90;;;;;;5055278;28;20099;-58
2020/12/29 04:30:41;;;;;;;2.40;2.20;;;3.80;99.90;;;;;;5057262;28;20467;-58
2020/12/29 04:33:07;;;;;;;3.42;2.33;;;3.90;99.90;;;;;;5038497;28;20025;-58
2020/12/29 04:35:33;;;;;;;7.22;2.08;;;3.80;99.90;;;;;;5056403;28;20036;-60
2020/12/29 04:37:59;;;;;;;3.42;2.20;;;3.90;99.90;;;;;;5056714;28;20025;-58
2020/12/29 04:40:24;;;;;;;3.17;2.08;;;3.90;99.90;;;;;;5038545;28;20047;-57
2020/12/29 04:42:52;;;;;;;2.55;2.35;;;4.10;99.90;;;;;;5038390;28;20029;-56
2020/12/29 04:45:19;;;;;;;2.72;1.83;;;4.00;99.90;;;;;;5054954;28;20029;-61
2020/12/29 04:47:45;;;;;;;2.20;2.00;;;3.90;99.90;;;;;;5054709;28;20486;-57
2020/12/29 04:50:14;;;;;;;3.78;2.00;;;3.90;99.90;;;;;;5035996;28;20429;-60
2020/12/29 04:52:44;;;;;;;2.42;2.22;;;4.00;99.90;;;;;;5036844;28;20035;-59
2020/12/29 04:55:09;;;;;;;3.88;1.85;;;4.00;99.90;;;;;;5053963;28;20112;-57
2020/12/29 04:57:35;;;;;;;1.70;1.60;;;4.10;99.90;;;;;;5054882;28;20460;-57
2020/12/29 05:00:05;;;;;;;1.75;1.63;;;4.10;99.90;;;;;;5037500;28;20040;-58
2020/12/29 05:02:31;;;;;;;2.42;1.75;;;4.20;99.90;;;;;;5037304;28;20109;-58
2020/12/29 05:04:57;;;;;;;6.20;1.65;;;4.20;99.90;;;;;;5054804;28;20424;-57
2020/12/29 05:07:22;;;;;;;3.08;1.58;;;4.30;99.90;;;;;;5054242;28;20375;-57
2020/12/29 05:09:48;;;;;;;2.90;1.33;;;4.50;99.90;;;;;;5054643;28;20033;-57
2020/12/29 05:12:17;;;;;;;2.15;1.13;;;4.30;99.90;;;;;;5035863;28;20128;-59
2020/12/29 05:14:47;;;;;;;1.15;1.00;;;4.30;99.90;;;;;;5053946;28;20493;-57
2020/12/29 05:17:13;;;;;;;0.75;0.68;;;4.40;99.90;;;;;;5053601;28;20029;-57
2020/12/29 05:19:40;;;;;;;5.28;1.35;;;4.60;99.90;;;;;;5054413;28;20481;-56
2020/12/29 05:22:07;;;;;;;1.27;0.80;;;4.50;99.90;;;;;;5053262;28;20143;-58
2020/12/29 05:24:32;;;;;;;1.20;0.82;;;4.50;99.90;;;;;;5053750;28;20025;-56
2020/12/29 05:27:00;;;;;;;0.85;0.65;;;4.50;99.90;;;;;;5035937;28;20029;-58
2020/12/29 05:29:26;;;;;;;2.05;0.93;;;4.70;99.90;;;;;;5054163;28;20467;-56
2020/12/29 05:31:53;;;;;;;0.77;0.60;;;4.50;99.90;;;;;;5036248;28;20078;-57
2020/12/29 05:34:20;;;;;;;1.55;1.02;;;4.50;99.90;;;;;;5035534;28;20040;-56
2020/12/29 05:36:47;;;;;;;1.50;0.60;;;4.60;99.90;;;;;;5035055;28;20379;-57
2020/12/29 05:39:13;;;;;;;0.55;0.55;;;4.50;99.90;;;;;;5053820;28;20033;-57
2020/12/29 05:41:45;;;;;;;2.10;0.50;;;4.60;99.90;;;;;;5054098;28;20029;-57
2020/12/29 05:44:13;;;;;;;0.98;0.47;;;4.60;99.90;;;;;;5053276;28;20051;-57
2020/12/29 05:46:39;;;;;;;0.60;0.50;;;4.50;99.90;;;;;;5035569;28;20033;-56
2020/12/29 05:49:05;;;;;;;0.65;0.35;;;4.50;99.90;;;;;;5054170;28;20033;-61
2020/12/29 05:51:33;;;;;;;0.70;0.43;;;4.50;99.90;;;;;;5035835;28;20116;-56
2020/12/29 05:54:01;;;;;;;0.60;0.50;;;4.40;99.90;;;;;;5036132;28;20028;-57
2020/12/29 05:56:30;;;;;;;1.40;0.20;;;4.40;99.90;;;;;;5053037;28;20021;-60
2020/12/29 05:58:56;;;;;;;0.57;0.35;;;4.20;99.90;;;;;;5053497;28;20021;-56
2020/12/29 06:01:22;;;;;;;0.90;0.50;;;4.20;99.90;;;;;;5034747;28;20025;-56
2020/12/29 06:03:50;;;;;;;0.70;0.70;;;4.30;99.90;;;;;;5035574;28;20086;-56
2020/12/29 06:06:16;;;;;;;1.27;0.52;;;4.30;99.90;;;;;;5034752;28;20021;-58
2020/12/29 06:08:42;;;;;;;0.90;0.70;;;4.30;99.90;;;;;;5053188;28;20067;-61
2020/12/29 06:11:21;;;;;;;0.80;0.80;;;4.30;99.90;;;;;;5052618;28;20037;-57
2020/12/29 06:13:47;;;;;;;1.98;1.10;;;4.30;99.90;;;;;;5053143;28;20041;-56
2020/12/29 06:16:17;;;;;;;1.05;0.70;;;4.40;99.90;;;;;;5052362;28;20053;-56
2020/12/29 06:18:46;;;;;;;1.88;1.27;;;4.30;99.90;;;;;;5035863;28;20112;-61
2020/12/29 06:21:16;;;;;;;1.23;0.88;;;4.20;99.90;;;;;;5053971;28;20028;-56
2020/12/29 06:23:45;;;;;;;1.85;0.60;;;4.10;99.90;;;;;;5052997;28;20438;-57
2020/12/29 06:26:17;;;;;;;2.03;0.95;;;4.10;99.90;;;;;;5034510;28;20036;-56
2020/12/29 06:28:46;;;;;;;;;;;4.10;99.90;;;;;;5035429;28;20029;-56
2020/12/29 06:31:25;;;;;;;1.50;0.85;;;4.00;99.90;;;;;;5034163;28;19997;-56
2020/12/29 06:33:54;;;;;;;2.70;1.35;;;4.10;99.90;;;;;;5052904;28;20055;-56
2020/12/29 06:36:21;;;;;;;0.80;0.80;;;4.00;99.90;;;;;;5034652;28;20038;-57
2020/12/29 06:38:49;;;;;;;1.08;0.98;;;4.10;99.90;;;;;;5034705;28;20021;-58
2020/12/29 06:41:19;;;;;;;1.85;1.35;;;4.10;99.90;;;;;;5034569;28;20091;-58
2020/12/29 06:43:45;;;;;;;6.40;1.33;;;4.10;99.90;;;;;;5034764;28;20031;-57
2020/12/29 06:46:15;;;;;;;1.48;1.20;;;4.20;99.90;;;;;;5052110;28;20031;-57
2020/12/29 06:48:41;;;;;;;3.45;1.20;;;4.10;99.90;;;;;;5037531;28;20059;-56
2020/12/29 06:51:12;;;;;;;1.45;1.17;;;4.10;99.90;;;;;;5038479;28;20063;-57
2020/12/29 06:53:41;;;;;;;1.92;1.55;;;4.00;99.90;;;;;;5056685;28;20470;-58
2020/12/29 06:56:14;;;;;;;1.38;1.17;;;3.90;99.90;;;;;;5056907;28;20074;-56
2020/12/29 06:58:40;;;;;;;1.27;1.15;;;4.00;99.90;;;;;;5057925;28;20067;-57
2020/12/29 07:01:26;;;;;;;1.23;1.05;;;4.10;99.90;;;;;;5057983;28;20033;-56
2020/12/29 07:04:04;;;;;;;1.33;1.10;;;4.20;99.90;;;;;;5040522;28;20032;-57
2020/12/29 07:06:32;;;;;;;1.52;1.42;;;4.10;99.90;;;;;;5057540;28;20352;-57
2020/12/29 07:09:01;;;;;;;1.98;1.45;;;4.00;99.90;;;;;;5040762;28;20026;-58
2020/12/29 07:11:27;;;;;;;2.20;1.50;;;3.90;99.90;;;;;;5057084;28;20033;-57
2020/12/29 07:13:53;;;;;;;4.88;2.05;;;3.90;99.90;;;;;;5058219;28;20152;-56
2020/12/29 07:16:25;;;;;;;1.98;1.77;;;3.90;99.90;;;;;;5039732;28;20032;-57
2020/12/29 07:18:52;;;;;;;1.55;1.45;;;4.00;99.90;;;;;;5057939;28;20028;-58
2020/12/29 07:21:28;;;;;;;2.50;1.95;;;3.90;99.90;;;;;;5039615;28;20090;-59
2020/12/29 07:23:55;;;;;;;1.98;1.70;;;3.90;99.90;;;;;;5058346;28;20036;-56
2020/12/29 07:26:22;;;;;;;2.90;1.85;;;3.90;99.90;;;;;;5039819;28;20052;-60
2020/12/29 07:28:54;;;;;;;2.58;1.77;;;3.90;99.90;;;;;;5058449;28;20036;-57
2020/12/29 07:31:20;;;;;;;;;;;3.90;99.90;;;;;;5057988;28;20532;-57
2020/12/29 07:33:54;;;;;;;1.90;1.70;;;3.90;99.90;;;;;;5057613;28;19912;-57
2020/12/29 07:36:22;;;;;;;2.78;1.58;;;3.90;99.90;;;;;;5055530;28;20029;-57
2020/12/29 07:38:50;;;;;;;2.67;2.05;;;3.90;99.90;;;;;;5056988;28;20029;-56
2020/12/29 07:41:19;;;;;;;4.65;1.90;;;3.90;99.90;;;;;;5055694;28;20033;-60
2020/12/29 07:43:46;;;;;;;3.38;1.52;;;4.00;99.90;;;;;;5038097;28;20036;-57
2020/12/29 07:46:13;;;;;;;3.10;2.45;;;3.90;99.90;;;;;;5037738;28;20025;-57
2020/12/29 07:48:39;;;;;;;2.80;1.70;;;4.00;99.90;;;;;;5055277;28;20064;-57
2020/12/29 07:51:05;;;;;;;3.67;1.77;;;4.00;99.90;;;;;;5037194;28;20421;-56
2020/12/29 07:53:32;;;;;;;4.45;1.90;;;4.00;99.90;;;;;;5054300;28;20040;-56
2020/12/29 07:55:58;;;;;;;2.15;1.30;;;4.00;99.90;;;;;;5037487;28;20033;-56
2020/12/29 07:58:24;;;;;;;1.60;1.50;;;4.00;99.90;;;;;;5036538;28;20478;-57
2020/12/29 08:00:50;;;;;;;4.13;1.67;;;4.10;99.90;;;;;;5036529;28;20029;-61
2020/12/29 08:03:18;;;;;;;2.42;1.60;;;4.10;99.90;;;;;;5038014;28;20033;-58
2020/12/29 08:05:45;;;;;;;3.55;2.05;;;4.20;99.90;;;;;;5039572;28;20051;-57
2020/12/29 08:08:12;;;;;;;1.88;1.40;;;4.20;99.90;;;;;;5039916;28;20029;-57
2020/12/29 08:10:39;;;;;;;2.53;1.63;;;4.40;99.90;;;;;;5057733;28;20025;-61
2020/12/29 08:13:12;;;;;;;2.95;1.42;;;4.30;99.90;;;;;;5056913;28;20080;-57
2020/12/29 08:15:43;;;;;;;3.20;1.40;;;4.30;99.90;;;;;;5056445;28;20033;-58
2020/12/29 08:18:18;;;;;;;1.77;1.45;;;4.30;99.90;;;;;;5037318;28;20033;-56
2020/12/29 08:20:46;;;;;;;1.35;1.00;;;4.30;99.90;;;;;;5037581;28;20036;-57
2020/12/29 08:23:13;;;;;;;2.83;1.20;;;4.30;99.90;;;;;;5037271;28;20458;-57
2020/12/29 08:25:40;;;;;;;1.67;1.10;;;4.30;99.90;;;;;;5054154;28;20488;-56
2020/12/29 08:28:07;;;;;;;3.58;1.52;;;4.30;99.90;;;;;;5054896;28;20032;-59
2020/12/29 08:30:35;;;;;;;3.88;1.30;;;4.30;99.90;;;;;;5054327;28;20040;-56
2020/12/29 08:33:03;;;;;;;1.77;1.40;;;4.20;99.90;;;;;;5036812;28;20037;-57
2020/12/29 08:35:33;;;;;;;2.85;1.08;;;4.30;99.90;;;;;;5036408;28;20063;-57
2020/12/29 08:38:04;;;;;;;1.23;0.70;;;4.20;99.90;;;;;;5036355;28;20029;-57
2020/12/29 08:40:35;;;;;;;0.90;0.70;;;4.20;99.90;;;;;;5053937;28;20029;-57
2020/12/29 08:43:01;;;;;;;1.45;0.93;;;4.20;99.90;;;;;;5054256;28;20025;-56
2020/12/29 08:45:28;;;;;;;0.88;0.70;;;4.20;99.90;;;;;;5053500;28;20040;-57
2020/12/29 08:47:56;;;;;;;1.17;0.60;;;4.20;99.90;;;;;;5054276;28;20052;-57
2020/12/29 08:50:25;;;;;;;3.08;0.85;;;4.30;99.90;;;;;;5035504;28;20537;-58
2020/12/29 08:52:53;;;;;;;2.25;0.85;;;4.40;99.90;;;;;;5054179;28;20031;-56
2020/12/29 08:55:28;;;;;;;1.10;0.82;;;4.50;99.90;;;;;;5053702;28;20024;-57
2020/12/29 08:57:57;;;;;;;1.08;0.68;;;4.50;99.90;;;;;;5054502;28;20021;-56
2020/12/29 09:00:24;;;;;;;0.90;0.47;;;4.50;99.90;;;;;;5053443;28;20025;-59
2020/12/29 09:02:50;;;;;;;1.15;0.70;;;4.50;99.90;;;;;;5035614;28;20086;-57
2020/12/29 09:05:28;;;;;;;1.00;0.65;;;4.50;99.90;;;;;;5036413;28;20032;-57
2020/12/29 09:07:55;;;;;;;0.50;0.45;;;4.50;99.90;;;;;;5054186;28;20466;-61
2020/12/29 09:10:21;;;;;;;0.80;0.60;;;4.50;99.90;;;;;;5035322;28;20139;-57
2020/12/29 09:12:48;;;;;;;3.42;0.70;;;4.40;99.90;;;;;;5034568;28;20398;-56
2020/12/29 09:15:25;;;;;;;0.77;0.50;;;4.60;99.90;;;;;;5033571;28;20045;-57
2020/12/29 09:17:59;;;;;;;0.55;0.40;;;4.50;99.90;;;;;;5034355;28;20068;-57
2020/12/29 09:20:29;;;;;;;1.42;1.27;;;4.40;99.90;;;;;;5031977;28;20037;-57
2020/12/29 09:23:03;;;;;;;1.38;0.70;;;4.40;99.90;;;;;;5032564;28;20028;-56
2020/12/29 09:25:36;;;;;;;1.33;0.60;;;4.50;99.90;;;;;;5032110;28;20022;-58
2020/12/29 09:28:14;;;;;;;1.33;0.95;;;4.40;99.90;;;;;;5032336;28;20072;-56
2020/12/29 09:30:58;;;;;;;1.02;0.93;;;4.40;99.90;;;;;;5031727;28;20487;-59
2020/12/29 09:33:24;;;;;;;0.88;0.60;;;4.50;99.90;;;;;;5033017;28;20479;-57
2020/12/29 09:35:50;;;;;;;1.15;0.70;;;4.50;99.90;;;;;;5032271;28;20032;-58
2020/12/29 09:38:17;;;;;;;1.17;0.80;;;4.50;99.90;;;;;;5032451;28;20029;-61
2020/12/29 09:40:44;;;;;;;1.20;0.75;;;4.50;99.90;;;;;;5031833;28;20064;-57
2020/12/29 09:43:10;;;;;;;1.20;0.90;;;4.40;99.90;;;;;;5032434;28;20049;-58
2020/12/29 09:45:36;;;;;;;2.17;1.55;;;4.50;99.90;;;;;;5031521;28;20382;-57
2020/12/29 09:48:01;;;;;;;1.85;1.38;;;4.60;99.90;;;;;;5032069;28;20029;-61
2020/12/29 09:50:27;;;;;;;1.10;0.80;;;4.70;99.90;;;;;;5019165;28;20037;-57
2020/12/29 09:52:53;;;;;;;2.70;1.02;;;4.80;99.90;;;;;;5014806;28;20034;-60
2020/12/29 09:55:18;;;;;;;1.10;1.00;;;4.70;99.90;;;;;;5020397;28;20379;-59
2020/12/29 09:57:44;;;;;;;1.05;0.95;;;4.70;99.90;;;;;;5021183;28;20026;-59
2020/12/29 10:00:10;;;;;;;1.98;1.00;;;4.70;99.90;;;;;;5020432;28;20518;-58
2020/12/29 10:02:36;;;;;;;4.13;0.95;;;4.60;99.90;;;;;;5019680;28;20561;-59
2020/12/29 10:05:02;;;;;;;1.50;1.05;;;4.70;99.90;;;;;;5019996;28;20049;-58
2020/12/29 10:07:28;;;;;;;1.33;1.02;;;4.80;99.90;;;;;;5022708;28;20037;-57
2020/12/29 10:09:54;;;;;;;1.98;1.40;;;4.90;99.90;;;;;;5029253;28;20095;-58
2020/12/29 10:12:21;;;;;;;1.50;1.30;;;4.90;99.90;;;;;;5030841;28;20061;-60
2020/12/29 10:14:47;;;;;;;2.03;1.80;;;4.80;99.90;;;;;;5031887;28;20045;-60
2020/12/29 10:17:13;;;;;;;3.30;1.60;;;4.90;99.90;;;;;;5032750;28;20091;-58
2020/12/29 10:19:38;;;;;;;1.83;1.42;;;4.90;99.90;;;;;;5026039;28;20034;-58
2020/12/29 10:22:04;;;;;;;1.65;1.50;;;4.90;99.90;;;;;;5031283;28;20065;-57
2020/12/29 10:24:30;;;;;;;1.73;1.30;;;5.00;99.90;;;;;;5033839;28;20029;-58
2020/12/29 10:26:57;;;;;;;2.10;1.60;;;5.10;99.90;;;;;;5035441;28;20029;-58
2020/12/29 10:29:23;;;;;;;1.50;1.35;;;5.00;99.90;;;;;;5034748;28;20104;-66
2020/12/29 10:31:49;;;;;;;1.95;1.55;;;5.00;99.90;;;;;;5036665;28;20046;-57
2020/12/29 10:34:16;;;;;;;2.58;2.13;;;5.00;99.90;;;;;;5036319;28;20052;-58
2020/12/29 10:36:43;;;;;;;2.20;1.80;;;4.90;99.90;;;;;;5034927;28;20036;-57
2020/12/29 10:39:10;;;;;;;2.65;1.85;;;5.00;99.90;;;;;;5035629;28;20064;-58
2020/12/29 10:41:38;;;;;;;2.05;1.48;;;5.00;99.90;;;;;;5033607;28;20033;-57
2020/12/29 10:44:05;;;;;;;2.15;1.70;;;5.00;99.90;;;;;;5035562;28;20025;-58
2020/12/29 10:46:31;;;;;;;2.08;1.17;;;5.00;99.90;;;;;;5034690;28;20096;-57
2020/12/29 10:48:57;;;;;;;2.33;2.05;;;5.10;99.90;;;;;;5036809;28;20064;-56
2020/12/29 10:51:24;;;;;;;1.45;1.23;;;5.20;99.90;;;;;;5034936;28;20129;-63
2020/12/29 10:53:51;;;;;;;1.90;1.70;;;5.20;99.90;;;;;;5035126;28;20033;-57
2020/12/29 10:56:17;;;;;;;2.00;1.50;;;5.20;99.90;;;;;;5036182;28;20079;-59
2020/12/29 10:58:43;;;;;;;1.80;1.48;;;5.30;99.90;;;;;;5035768;28;20550;-58
2020/12/29 11:01:10;;;;;;;1.92;1.58;;;5.30;99.90;;;;;;5035534;28;20116;-58
2020/12/29 11:03:35;;;;;;;2.42;1.80;;;5.30;99.90;;;;;;5035222;28;20029;-58
2020/12/29 11:06:01;;;;;;;2.42;1.52;;;5.50;99.90;;;;;;5035608;28;20097;-58
2020/12/29 11:08:28;;;;;;;1.85;1.23;;;5.40;99.90;;;;;;5035293;28;20379;-64
2020/12/29 11:10:54;;;;;;;1.52;1.42;;;5.40;99.90;;;;;;5036127;28;20045;-61
2020/12/29 11:13:21;;;;;;;1.85;1.48;;;5.40;99.90;;;;;;5035400;28;20045;-58
2020/12/29 11:15:53;;;;;;;1.45;1.23;;;5.50;99.90;;;;;;5034616;28;20495;-58
2020/12/29 11:18:19;;;;;;;;;;;5.40;99.90;;;;;;5029533;28;20108;-59
2020/12/29 11:20:49;;;;;;;1.83;1.17;;;5.40;99.90;;;;;;5015940;28;20007;-57
2020/12/29 11:23:14;;;;;;;2.95;1.88;;;5.50;99.90;;;;;;5015939;28;20033;-56
2020/12/29 11:25:40;;;;;;;1.70;1.00;;;5.50;99.90;;;;;;5014619;28;20030;-57
2020/12/29 11:28:06;;;;;;;2.65;1.00;;;5.50;99.90;;;;;;5015432;28;20033;-59
2020/12/29 11:30:31;;;;;;;2.70;1.33;;;5.60;99.90;;;;;;5014688;28;20045;-57
2020/12/29 11:32:57;;;;;;;3.03;1.40;;;6.00;99.90;;;;;;5015557;28;20060;-58
2020/12/29 11:35:23;;;;;;;2.08;1.33;;;6.20;99.90;;;;;;5016012;28;20037;-64
2020/12/29 11:37:49;;;;;;;2.58;1.45;;;6.30;99.90;;;;;;5032417;28;20017;-57
2020/12/29 11:40:16;;;;;;;1.88;1.40;;;6.20;99.90;;;;;;5034951;28;20033;-57
2020/12/29 11:42:42;;;;;;;2.33;1.50;;;6.00;99.90;;;;;;5033823;28;20033;-58
2020/12/29 11:45:07;;;;;;;2.20;1.63;;;5.90;99.90;;;;;;5033939;28;20468;-57
2020/12/29 11:47:34;;;;;;;1.52;1.20;;;5.90;99.90;;;;;;5033283;28;20105;-61
2020/12/29 11:50:00;;;;;;;1.60;1.30;;;6.00;99.90;;;;;;5015740;28;20036;-56
2020/12/29 11:52:26;;;;;;;2.63;1.00;;;6.10;99.90;;;;;;5013239;28;20034;-65
2020/12/29 11:54:52;;;;;;;7.25;2.00;;;6.10;99.90;;;;;;5022475;28;20036;-58
2020/12/29 11:57:18;;;;;;;4.93;1.23;;;6.00;99.90;;;;;;5034575;28;20041;-59
2020/12/29 11:59:44;;;;;;;2.85;1.10;;;6.50;99.90;;;;;;5032778;28;20364;-55
2020/12/29 12:02:10;;;;;;;3.63;1.10;;;7.40;99.90;;;;;;5035362;28;20025;-57
2020/12/29 12:04:36;;;;;;;3.55;1.27;;;7.00;99.90;;;;;;5033190;28;20092;-59
2020/12/29 12:07:04;;;;;;;1.45;0.90;;;6.50;99.90;;;;;;5035702;28;20490;-57
2020/12/29 12:09:33;;;;;;;5.03;2.17;;;6.30;99.90;;;;;;5033702;28;20029;-63
2020/12/29 12:12:00;;;;;;;3.55;1.70;;;6.20;99.90;;;;;;5033201;28;20059;-66
2020/12/29 12:14:26;;;;;;;2.53;1.23;;;6.20;99.90;;;;;;5021649;28;20026;-68
2020/12/29 12:16:52;;;;;;;4.82;1.58;;;6.30;99.90;;;;;;4999206;28;20033;-57
2020/12/29 12:19:17;;;;;;;2.60;1.17;;;6.30;99.90;;;;;;5005901;28;20543;-61
2020/12/29 12:21:43;;;;;;;4.00;1.42;;;6.20;99.90;;;;;;4998994;28;20035;-59
2020/12/29 12:24:09;;;;;;;2.17;1.35;;;6.20;99.90;;;;;;5010784;28;20030;-57
2020/12/29 12:26:34;;;;;;;2.28;1.17;;;6.30;99.90;;;;;;5012719;28;20026;-58
2020/12/29 12:29:00;;;;;;;2.20;1.10;;;6.30;99.90;;;;;;5014582;28;20038;-57
2020/12/29 12:31:26;;;;;;;2.35;1.00;;;6.50;99.90;;;;;;5013783;28;20058;-65
2020/12/29 12:33:52;;;;;;;3.00;1.05;;;6.40;99.90;;;;;;5012321;28;20030;-57
2020/12/29 12:36:18;;;;;;;2.90;1.25;;;6.40;99.90;;;;;;5012299;28;20022;-57
2020/12/29 12:38:44;;;;;;;1.77;0.98;;;6.50;99.90;;;;;;5007332;28;20029;-58
2020/12/29 12:41:10;;;;;;;3.42;1.60;;;6.50;99.90;;;;;;5012693;28;20026;-56
2020/12/29 12:43:38;;;;;;;2.15;1.17;;;6.50;99.90;;;;;;5007892;28;20030;-60
2020/12/29 12:46:04;;;;;;;3.08;1.27;;;6.50;99.90;;;;;;5000745;28;20022;-59
2020/12/29 12:48:30;;;;;;;3.72;1.25;;;6.30;99.90;;;;;;5000397;28;20030;-52
2020/12/29 12:50:56;;;;;;;9.18;1.67;;;6.40;99.90;;;;;;4999134;28;20045;-57
2020/12/29 12:53:22;;;;;;;3.53;1.23;;;7.00;99.90;;;;;;4999345;28;20480;-56
2020/12/29 12:55:48;;;;;;;4.30;1.10;;;6.70;99.90;;;;;;4993175;28;20042;-57
2020/12/29 12:58:13;;;;;;;6.25;1.13;;;6.60;99.90;;;;;;5003799;28;20171;-57